AirNav   Air Wisconsin Up To $57,000 Bonus
 
 1568 users online  

NE15 Frontier Field Airport
Maywood, Nebraska, USA

GOING TO MAYWOOD?


FAA INFORMATION EFFECTIVE 07 OCTOBER 2021

Location

FAA Identifier: NE15
Lat/Long: 40-37-01.3600N 100-43-35.0700W
40-37.022667N 100-43.584500W
40.6170444,-100.7264083
(estimated)
Elevation: 2980 ft. / 908 m (estimated)
From city: 6 miles SW of MAYWOOD, NE
Time zone: UTC -5 (UTC -6 during Standard Time)
Zip code: 69038

Airport Operations

Airport use: Private use. Permission required prior to landing
Activation date: 04/2013
Control tower: no
ARTCC: DENVER CENTER
FSS: COLUMBUS FLIGHT SERVICE STATION
Attendance: UNATNDD
Segmented circle: no

Nearby radio navigation aids

VOR radial/distance  VOR name  Freq  Var
HCTr032/13.3HAYES CENTER VORTAC117.7011E
MCKr338/25.5MC COOK VOR/DME115.3008E
LBFr167/25.9NORTH PLATTE VOR/DME117.4011E
OZBr236/(36.2)COZAD VOR109.0009E

Airport Services

Runway Information

Runway 18/36

Dimensions: 2500 x 75 ft. / 762 x 23 m
Surface: turf
RUNWAY 18  RUNWAY 36
Latitude: 40-37.228500N40-36.816667N
Longitude: 100-43.584500W100-43.586167W
Elevation: 2937.0 ft.2980.0 ft.
Traffic pattern: leftleft

Airport Ownership and Management from official FAA records

Ownership: Privately-owned
Owner: MEDICINE CREEK LLC
1518 E 57TH ST
LOVELAND, CO 80538
Phone 303-570-5110
Manager: RYAN WOOD
1518 E 57TH ST
LOVELAND, CO 80538
Phone 303-570-5110

Additional Remarks

FOR CD CTC DENVER ARTCC AT 303-651-4257.

Instrument Procedures

There are no published instrument procedures at NE15.

Some nearby airports with instrument procedures:

47V - Curtis Municipal Airport (12 nm E)
KMCK - Mc Cook Ben Nelson Regional Airport (25 nm S)
KLBF - North Platte Regional Airport/Lee Bird Field (31 nm N)
KCSB - Cambridge Municipal Airport (32 nm SE)
KGTE - Gothenburg Municipal Airport (32 nm NE)
 
Loc | Ops | Rwys | IFR | FBO | Links
Com | Nav | Svcs | Stats | Notes

AirBoss

 
Aerial photo
No photo
 
Airport distance calculator
Flying to Frontier Field Airport? Find the distance to fly.

From to NE15

Sunrise and sunset
Times for 19-Oct-2021
 Local
(UTC-5)
 Zulu
(UTC)
Morning civil twilight07:3212:32
Sunrise07:5912:59
Sunset18:5623:56
Evening civil twilight19:2400:24

Current date and time
Zulu (UTC)  19-Oct-2021 15:34:51
Local (UTC-5)  19-Oct-2021 10:34:51
 
METAR
KMCK 
26nm S 
191453Z AUTO 11006KT 10SM CLR 11/07 A2975 RMK AO2 SLP066 T01110072 53006
KLBF 
30nm N 
191453Z AUTO 10007KT 10SM CLR 09/06 A2977 RMK AO2 SLP077 T00890061 53008
KIML 
41nm W 
191453Z AUTO 12004KT 10SM CLR 09/06 A2973 RMK AO2 SLP066 T00940061 53005
KLXN 
45nm E 
191515Z AUTO 15010KT 10SM CLR 14/08 A2977 RMK AO2 T01380082
KOIN 
48nm S 
191515Z AUTO 18010KT 10SM CLR 15/09 A2978 RMK AO1 T01520087
KADT 
49nm S 
191510Z AUTO 17004KT 10SM CLR 15/07 A2978 RMK AO2 T01520065
TAF
KMCK 
26nm S 
191141Z 1912/2012 11006KT P6SM SCT250 FM191500 20008KT P6SM FEW250 FM192000 24016G25KT P6SM SKC FM192300 29017G30KT P6SM FEW250 FM200600 30018KT P6SM BKN150
KLBF 
30nm N 
191137Z 1912/2012 11007KT P6SM FEW180 SCT250 FM191900 15010KT P6SM SCT150 FM192300 28015G23KT P6SM SCT150 FM200300 31012KT P6SM BKN120 FM200700 31016G25KT P6SM BKN025
NOTAMs
Click for the latest NOTAMs
NOTAMs are issued by the DoD/FAA and will open in a separate window not controlled by AirNav.

 

 
 

Would you like to see your business listed on this page?

 If your business provides an interesting product or service to pilots, flight crews, aircraft, or users of the Frontier Field Airport, you should consider listing it here.  To start the listing process, click on the button below
 
Add a business
 

Other Pages about Frontier Field Airport

Update a link
 
Copyright © AirNav, LLC. All rights reserved. Privacy Policy  Contact